createdAt,value
2023-03-04T00:02:20.694Z,1.00
2023-03-04T00:04:50.881Z,1.00
2023-03-04T00:07:18.955Z,1.00
2023-03-04T00:09:47.392Z,1.00
2023-03-04T00:12:15.656Z,1.00
2023-03-04T00:14:43.775Z,1.00
2023-03-04T00:17:11.743Z,1.00
2023-03-04T00:19:39.712Z,1.00
2023-03-04T00:22:09.071Z,1.00
2023-03-04T00:24:37.016Z,1.00
2023-03-04T00:27:05.067Z,1.00
2023-03-04T00:29:33.004Z,1.00
2023-03-04T00:32:01.128Z,1.00
2023-03-04T00:34:30.737Z,1.00
2023-03-04T00:37:01.580Z,1.00
2023-03-04T00:39:31.428Z,1.00
2023-03-04T00:41:59.366Z,1.00
2023-03-04T00:44:27.279Z,1.00
2023-03-04T00:46:55.230Z,1.00
2023-03-04T00:49:23.559Z,1.00
2023-03-04T00:51:51.560Z,1.00
2023-03-04T00:54:19.526Z,1.00
2023-03-04T00:56:48.883Z,1.00
2023-03-04T00:59:16.856Z,1.00
2023-03-04T01:01:44.860Z,1.00
2023-03-04T01:04:12.844Z,1.00
2023-03-04T01:06:40.836Z,1.00
2023-03-04T01:09:09.071Z,1.00
2023-03-04T01:11:37.055Z,1.00
2023-03-04T01:14:06.413Z,1.00
2023-03-04T01:16:34.905Z,1.00
2023-03-04T01:19:03.017Z,1.00
2023-03-04T01:21:31.036Z,1.00
2023-03-04T01:23:59.030Z,1.00
2023-03-04T01:26:27.032Z,1.00
2023-03-04T01:28:54.967Z,1.00
2023-03-04T01:31:24.348Z,1.00
2023-03-04T01:33:52.349Z,1.00
2023-03-04T01:36:20.328Z,1.00
2023-03-04T01:38:48.286Z,1.00
2023-03-04T01:41:20.073Z,1.00
2023-03-04T01:43:48.072Z,1.00
2023-03-04T01:46:17.513Z,1.00
2023-03-04T01:48:46.902Z,1.00
2023-03-04T01:51:17.262Z,1.00
2023-03-04T01:53:46.898Z,1.00
2023-03-04T01:56:20.991Z,1.00
2023-03-04T01:59:08.238Z,1.00
2023-03-04T02:01:36.578Z,1.00
2023-03-04T02:04:06.505Z,1.00
2023-03-04T02:06:34.811Z,1.00
2023-03-04T02:09:02.856Z,1.00
2023-03-04T02:11:31.213Z,1.00
2023-03-04T02:13:59.675Z,1.00
2023-03-04T02:16:27.916Z,1.00
2023-03-04T02:18:56.275Z,1.00
2023-03-04T02:21:27.648Z,1.00
2023-03-04T02:24:04.522Z,1.00
2023-03-04T02:26:35.311Z,1.00
2023-03-04T02:29:04.437Z,1.00
2023-03-04T02:31:34.744Z,1.00
2023-03-04T02:34:04.501Z,1.00
2023-03-04T02:36:33.663Z,1.00
2023-03-04T02:39:09.285Z,1.00
2023-03-04T02:41:38.989Z,1.00
2023-03-04T02:44:17.389Z,1.00
2023-03-04T02:46:45.504Z,1.00
2023-03-04T02:49:13.505Z,1.00
2023-03-04T02:51:41.457Z,1.00
2023-03-04T02:54:16.967Z,1.00
2023-03-04T02:56:50.328Z,1.00
2023-03-04T02:59:18.648Z,1.00
2023-03-04T03:01:47.219Z,1.00
2023-03-04T03:04:15.556Z,1.00
2023-03-04T03:06:43.556Z,1.00
2023-03-04T03:09:11.521Z,1.00
2023-03-04T03:11:39.591Z,1.00
2023-03-04T03:14:08.924Z,1.00
2023-03-04T03:16:36.967Z,1.00
2023-03-04T03:19:05.048Z,1.00
2023-03-04T03:21:33.077Z,1.00
2023-03-04T03:24:01.040Z,1.00
2023-03-04T03:26:29.012Z,1.00
2023-03-04T03:28:56.978Z,1.00
2023-03-04T03:31:26.346Z,1.00
2023-03-04T03:33:54.344Z,1.00
2023-03-04T03:36:22.357Z,1.00
2023-03-04T03:38:50.351Z,1.00
2023-03-04T03:41:18.286Z,1.00
2023-03-04T03:43:46.331Z,1.00
2023-03-04T03:46:14.346Z,1.00
2023-03-04T03:48:43.618Z,1.00
2023-03-04T03:51:11.610Z,1.00
2023-03-04T03:53:39.584Z,1.00
2023-03-04T03:56:08.339Z,1.00
2023-03-04T03:58:36.322Z,1.00
2023-03-04T04:01:04.339Z,1.00
2023-03-04T04:03:32.252Z,1.00
2023-03-04T04:06:01.582Z,1.00
2023-03-04T04:08:29.568Z,1.00
2023-03-04T04:10:57.534Z,1.00
2023-03-04T04:13:25.538Z,1.00
2023-03-04T04:15:53.536Z,1.00
2023-03-04T04:18:21.464Z,1.00
2023-03-04T04:20:49.459Z,1.00
2023-03-04T04:23:18.804Z,1.00
2023-03-04T04:25:46.724Z,1.00
2023-03-04T04:28:14.693Z,1.00
2023-03-04T04:30:42.921Z,1.00
2023-03-04T04:33:11.202Z,1.00
2023-03-04T04:35:39.795Z,1.00
2023-03-04T04:38:08.309Z,1.00
2023-03-04T04:40:38.137Z,1.00
2023-03-04T04:43:06.884Z,1.00
2023-03-04T04:45:35.932Z,1.00
2023-03-04T04:48:04.000Z,1.00
2023-03-04T04:50:33.046Z,1.00
2023-03-04T04:53:01.193Z,1.00
2023-03-04T04:55:29.297Z,1.00
2023-03-04T04:57:58.650Z,1.00
2023-03-04T05:00:26.813Z,1.00
2023-03-04T05:02:54.767Z,1.00
2023-03-04T05:05:22.777Z,1.00
2023-03-04T05:07:50.804Z,1.00
2023-03-04T05:10:18.852Z,1.00
2023-03-04T05:12:46.870Z,1.00
2023-03-04T05:15:16.301Z,1.00
2023-03-04T05:17:44.273Z,1.00
2023-03-04T05:20:13.289Z,1.00
2023-03-04T05:22:41.276Z,1.00
2023-03-04T05:25:10.117Z,1.00
2023-03-04T05:27:38.045Z,1.00
2023-03-04T05:30:07.013Z,1.00
2023-03-04T05:32:36.369Z,1.00
2023-03-04T05:35:04.579Z,1.00
2023-03-04T05:37:32.553Z,1.00
2023-03-04T05:40:00.543Z,1.00
2023-03-04T05:42:28.557Z,1.00
2023-03-04T05:44:56.575Z,1.00
2023-03-04T05:47:24.658Z,1.00
2023-03-04T05:49:54.537Z,1.00
2023-03-04T05:52:22.439Z,1.00
2023-03-04T05:54:50.430Z,1.00
2023-03-04T05:57:18.374Z,1.00
2023-03-04T05:59:46.357Z,1.00
2023-03-04T06:02:14.281Z,1.00
2023-03-04T06:04:42.206Z,1.00
2023-03-04T06:07:11.548Z,1.00
2023-03-04T06:09:39.500Z,1.00
2023-03-04T06:12:08.006Z,1.00
2023-03-04T06:14:35.937Z,1.00
2023-03-04T06:17:04.023Z,1.00
2023-03-04T06:19:31.995Z,1.00
2023-03-04T06:22:00.736Z,1.00
2023-03-04T06:24:30.014Z,2.50
2023-03-04T06:26:57.962Z,34.40
2023-03-04T06:29:25.920Z,66.20
2023-03-04T06:31:53.922Z,95.50
2023-03-04T06:34:22.330Z,99.90
2023-03-04T06:36:50.352Z,99.90
2023-03-04T06:39:18.513Z,99.90
2023-03-04T06:41:47.835Z,99.90
2023-03-04T06:44:15.765Z,99.90
2023-03-04T06:46:43.772Z,99.90
2023-03-04T06:49:11.887Z,99.90
2023-03-04T06:51:39.813Z,99.90
2023-03-04T06:54:07.862Z,99.90
2023-03-04T06:56:35.873Z,99.90
2023-03-04T06:59:06.110Z,92.20
2023-03-04T07:01:34.793Z,58.60
2023-03-04T07:04:02.778Z,48.40
2023-03-04T07:06:31.061Z,35.30
2023-03-04T07:08:59.563Z,43.40
2023-03-04T07:11:27.834Z,37.30
2023-03-04T07:13:55.872Z,30.10
2023-03-04T07:16:25.600Z,19.60
2023-03-04T07:18:53.569Z,8.90
2023-03-04T07:21:21.575Z,1.00
2023-03-04T07:23:49.566Z,1.00
2023-03-04T07:26:18.312Z,3.30
2023-03-04T07:28:46.274Z,1.00
2023-03-04T07:31:19.013Z,1.00
2023-03-04T07:33:48.423Z,1.00
2023-03-04T07:36:16.722Z,1.00
2023-03-04T07:38:46.037Z,1.00
2023-03-04T07:41:14.203Z,1.00
2023-03-04T07:43:42.182Z,1.00
2023-03-04T07:46:10.837Z,1.00
2023-03-04T07:48:39.028Z,1.00
2023-03-04T07:51:11.363Z,1.00
2023-03-04T07:53:39.621Z,1.00
2023-03-04T07:56:09.321Z,5.40
2023-03-04T07:58:37.403Z,54.20
2023-03-04T08:01:11.224Z,62.90
2023-03-04T08:03:39.411Z,48.90
2023-03-04T08:06:10.662Z,70.40
2023-03-04T08:08:39.193Z,54.10
2023-03-04T08:11:08.242Z,41.80
2023-03-04T08:13:36.819Z,71.00
2023-03-04T08:16:05.573Z,81.70
2023-03-04T08:18:33.994Z,67.60
2023-03-04T08:21:01.945Z,96.20
2023-03-04T08:23:31.280Z,99.90
2023-03-04T08:25:59.275Z,99.90
2023-03-04T08:28:27.257Z,89.70
2023-03-04T08:30:56.641Z,88.20
2023-03-04T08:33:24.635Z,31.80
2023-03-04T08:35:52.648Z,42.90
2023-03-04T08:38:20.637Z,45.10
2023-03-04T08:40:55.282Z,37.80
2023-03-04T08:43:24.520Z,99.90
2023-03-04T08:45:53.432Z,99.90
2023-03-04T08:48:22.110Z,99.90
2023-03-04T08:50:51.147Z,99.90
2023-03-04T08:53:20.355Z,99.90
2023-03-04T08:55:48.721Z,99.90
2023-03-04T08:58:18.122Z,99.90
2023-03-04T09:00:49.444Z,99.90
2023-03-04T09:03:19.472Z,99.90
2023-03-04T09:05:47.837Z,99.90
2023-03-04T09:08:16.289Z,99.90
2023-03-04T09:10:44.343Z,99.90
2023-03-04T09:13:13.582Z,99.90
2023-03-04T09:15:47.129Z,99.90
2023-03-04T09:18:16.425Z,99.90
2023-03-04T09:20:44.761Z,99.90
2023-03-04T09:23:13.737Z,99.90
2023-03-04T09:25:43.368Z,99.90
2023-03-04T09:28:12.675Z,1.00
2023-03-04T09:30:40.919Z,1.00
2023-03-04T09:33:10.603Z,1.00
2023-03-04T09:35:38.877Z,1.00
2023-03-04T09:38:07.148Z,1.00
2023-03-04T09:40:41.256Z,1.00
2023-03-04T09:43:18.523Z,1.00
2023-03-04T09:45:51.585Z,1.00
2023-03-04T09:48:24.564Z,1.00
2023-03-04T09:51:07.498Z,1.00
2023-03-04T09:53:42.660Z,1.00
2023-03-04T09:56:12.686Z,1.00
2023-03-04T09:58:54.037Z,99.90
2023-03-04T10:01:26.547Z,99.90
2023-03-04T10:04:01.031Z,99.90
2023-03-04T10:06:29.716Z,99.90
2023-03-04T10:09:02.505Z,99.90
2023-03-04T10:11:36.405Z,99.90
2023-03-04T10:14:28.924Z,99.90
2023-03-04T10:17:01.712Z,99.90
2023-03-04T10:19:37.972Z,99.90
2023-03-04T10:22:18.036Z,99.90
2023-03-04T10:24:47.650Z,99.90
2023-03-04T10:27:19.615Z,99.90
2023-03-04T10:29:49.094Z,99.90
2023-03-04T10:32:19.595Z,99.90
2023-03-04T10:34:49.199Z,1.00
2023-03-04T10:37:17.146Z,1.00
2023-03-04T10:39:46.606Z,1.00
2023-03-04T10:42:27.885Z,1.00
2023-03-04T10:44:58.204Z,1.00
2023-03-04T10:47:27.311Z,1.00
2023-03-04T10:49:58.130Z,1.00
2023-03-04T10:52:30.877Z,1.00
2023-03-04T10:55:01.314Z,1.00
2023-03-04T10:57:36.182Z,1.00
2023-03-04T11:00:21.452Z,1.00
2023-03-04T11:02:50.606Z,1.00
2023-03-04T11:05:22.990Z,1.00
2023-03-04T11:07:56.356Z,99.90
2023-03-04T11:10:28.980Z,99.90
2023-03-04T11:13:01.376Z,99.90
2023-03-04T11:15:31.260Z,99.90
2023-03-04T11:18:03.727Z,99.90
2023-03-04T11:20:34.200Z,99.90
2023-03-04T11:23:06.343Z,99.90
2023-03-04T11:25:37.162Z,99.90
2023-03-04T11:28:13.018Z,99.90
2023-03-04T11:30:46.722Z,99.90
2023-03-04T11:33:21.894Z,99.90
2023-03-04T11:35:58.422Z,99.90
2023-03-04T11:38:32.116Z,99.90
2023-03-04T11:41:02.777Z,99.90
2023-03-04T11:43:36.842Z,99.90
2023-03-04T11:46:37.732Z,99.90
2023-03-04T11:49:25.954Z,99.90
2023-03-04T11:52:07.164Z,99.90
2023-03-04T11:54:44.382Z,99.90
2023-03-04T11:57:26.178Z,99.90
2023-03-04T12:00:04.593Z,99.90
2023-03-04T12:02:42.572Z,99.90
2023-03-04T12:05:27.166Z,99.90
2023-03-04T12:08:37.970Z,99.90
2023-03-04T12:11:09.322Z,99.90
2023-03-04T12:14:06.488Z,99.90
2023-03-04T12:17:05.265Z,99.90
2023-03-04T12:19:43.776Z,99.90
2023-03-04T12:22:35.203Z,99.90
2023-03-04T12:25:34.739Z,99.90
2023-03-04T12:28:17.530Z,1.00
2023-03-04T12:30:58.645Z,1.00
2023-03-04T12:33:38.780Z,1.00
2023-03-04T12:36:18.375Z,1.00
2023-03-04T12:39:01.734Z,1.00
2023-03-04T12:41:47.243Z,1.00
2023-03-04T12:44:18.158Z,1.00
2023-03-04T12:47:06.911Z,1.00
2023-03-04T12:49:44.959Z,1.00
2023-03-04T12:52:19.489Z,1.00
2023-03-04T12:54:50.804Z,1.00
2023-03-04T12:57:22.230Z,99.90
2023-03-04T12:59:56.751Z,1.00
2023-03-04T13:02:44.045Z,1.00
2023-03-04T13:05:30.544Z,1.00
2023-03-04T13:08:09.129Z,99.90
2023-03-04T13:10:37.206Z,99.90
2023-03-04T13:13:06.813Z,99.90
2023-03-04T13:15:36.652Z,99.90
2023-03-04T13:18:20.917Z,99.90
2023-03-04T13:21:05.976Z,99.90
2023-03-04T13:23:34.273Z,99.90
2023-03-04T13:26:30.671Z,99.90
2023-03-04T13:29:33.423Z,99.90
2023-03-04T13:32:03.558Z,99.90
2023-03-04T13:34:46.941Z,99.90
2023-03-04T13:37:31.126Z,99.90
2023-03-04T13:40:37.325Z,99.90
2023-03-04T13:43:28.217Z,99.90
2023-03-04T13:45:57.824Z,99.90
2023-03-04T13:48:31.439Z,99.90
2023-03-04T13:51:00.105Z,99.90
2023-03-04T13:53:42.211Z,99.90
2023-03-04T13:56:26.955Z,99.90
2023-03-04T13:59:16.095Z,99.90
2023-03-04T14:01:56.887Z,99.90
2023-03-04T14:04:28.517Z,99.90
2023-03-04T14:06:58.909Z,99.90
2023-03-04T14:09:29.116Z,99.90
2023-03-04T14:11:59.631Z,99.90
2023-03-04T14:14:31.241Z,99.90
2023-03-04T14:17:03.428Z,99.90
2023-03-04T14:19:33.492Z,99.90
2023-03-04T14:22:02.079Z,99.90
2023-03-04T14:24:31.061Z,99.90
2023-03-04T14:27:11.654Z,99.90
2023-03-04T14:29:39.670Z,99.90
2023-03-04T14:32:09.397Z,95.90
2023-03-04T14:34:39.729Z,89.10
2023-03-04T14:37:22.787Z,99.90
2023-03-04T14:39:54.030Z,43.90
2023-03-04T14:42:24.611Z,8.70
2023-03-04T14:44:53.245Z,21.60
2023-03-04T14:47:28.048Z,17.80
2023-03-04T14:49:56.272Z,1.00
2023-03-04T14:52:45.656Z,1.00
2023-03-04T14:55:24.856Z,1.00
2023-03-04T14:57:58.428Z,1.00
2023-03-04T15:00:31.957Z,1.00
2023-03-04T15:03:02.589Z,1.00
2023-03-04T15:05:32.196Z,1.00
2023-03-04T15:08:02.088Z,1.00
2023-03-04T15:10:31.991Z,1.00
2023-03-04T15:13:02.066Z,1.00
2023-03-04T15:15:39.943Z,1.00
2023-03-04T15:18:23.797Z,1.00
2023-03-04T15:20:56.162Z,1.00
2023-03-04T15:23:24.032Z,1.00
2023-03-04T15:25:57.177Z,1.00
2023-03-04T15:28:26.528Z,1.00
2023-03-04T15:30:54.962Z,1.00
2023-03-04T15:33:25.894Z,1.00
2023-03-04T15:35:57.209Z,1.00
2023-03-04T15:38:25.982Z,1.00
2023-03-04T15:40:54.936Z,1.00
2023-03-04T15:43:24.232Z,1.00
2023-03-04T15:45:53.439Z,1.00
2023-03-04T15:48:21.884Z,1.00
2023-03-04T15:50:57.181Z,1.00
2023-03-04T15:53:29.801Z,1.00
2023-03-04T15:55:57.850Z,1.00
2023-03-04T15:58:26.386Z,1.00
2023-03-04T16:00:54.495Z,1.00
2023-03-04T16:03:23.669Z,1.00
2023-03-04T16:05:53.520Z,1.00
2023-03-04T16:08:24.977Z,1.00
2023-03-04T16:10:53.708Z,1.00
2023-03-04T16:13:23.916Z,1.00
2023-03-04T16:15:53.208Z,1.00
2023-03-04T16:18:21.498Z,1.00
2023-03-04T16:20:52.447Z,1.00
2023-03-04T16:23:23.339Z,1.00
2023-03-04T16:25:55.087Z,1.00
2023-03-04T16:28:23.810Z,1.00
2023-03-04T16:30:51.851Z,1.00
2023-03-04T16:33:19.947Z,1.00
2023-03-04T16:35:48.347Z,1.00
2023-03-04T16:38:25.723Z,1.00
2023-03-04T16:40:54.278Z,11.00
2023-03-04T16:43:22.360Z,26.60
2023-03-04T16:45:50.337Z,91.60
2023-03-04T16:48:20.244Z,99.90
2023-03-04T16:50:48.325Z,99.90
2023-03-04T16:53:25.942Z,99.90
2023-03-04T16:55:54.033Z,99.90
2023-03-04T16:58:22.074Z,99.90
2023-03-04T17:00:50.082Z,99.90
2023-03-04T17:03:18.056Z,99.90
2023-03-04T17:05:47.760Z,99.90
2023-03-04T17:08:15.722Z,99.90
2023-03-04T17:10:45.251Z,99.90
2023-03-04T17:13:13.199Z,99.90
2023-03-04T17:15:42.908Z,99.90
2023-03-04T17:18:10.898Z,99.90
2023-03-04T17:20:39.112Z,99.90
2023-03-04T17:23:07.093Z,99.90
2023-03-04T17:25:35.113Z,99.90
2023-03-04T17:28:05.081Z,99.80
2023-03-04T17:30:33.373Z,90.60
2023-03-04T17:33:01.394Z,99.90
2023-03-04T17:35:29.485Z,99.90
2023-03-04T17:37:57.515Z,79.50
2023-03-04T17:40:25.588Z,70.20
2023-03-04T17:42:53.553Z,94.20
2023-03-04T17:45:23.001Z,99.90
2023-03-04T17:47:51.057Z,99.90
2023-03-04T17:50:21.090Z,99.90
2023-03-04T17:52:49.196Z,99.90
2023-03-04T17:55:17.261Z,99.90
2023-03-04T17:57:45.328Z,99.90
2023-03-04T18:00:14.424Z,99.90
2023-03-04T18:02:43.745Z,99.90
2023-03-04T18:05:11.976Z,99.90
2023-03-04T18:07:39.931Z,99.90
2023-03-04T18:10:08.923Z,99.90
2023-03-04T18:12:36.936Z,99.90
2023-03-04T18:15:05.486Z,99.90
2023-03-04T18:17:33.439Z,99.90
2023-03-04T18:20:02.900Z,99.90
2023-03-04T18:22:32.473Z,99.90
2023-03-04T18:25:00.413Z,99.90
2023-03-04T18:27:28.537Z,99.90
2023-03-04T18:29:57.778Z,99.90
2023-03-04T18:32:25.937Z,99.90
2023-03-04T18:34:54.127Z,99.90
2023-03-04T18:37:23.625Z,99.90
2023-03-04T18:39:51.745Z,99.90
2023-03-04T18:42:19.800Z,99.90
2023-03-04T18:44:47.829Z,99.90
2023-03-04T18:47:16.028Z,99.90
2023-03-04T18:49:46.829Z,99.90
2023-03-04T18:52:15.360Z,99.90
2023-03-04T18:54:44.680Z,99.90
2023-03-04T18:57:16.416Z,99.90
2023-03-04T18:59:48.780Z,99.90
2023-03-04T19:02:19.988Z,64.40
2023-03-04T19:04:48.994Z,22.50
2023-03-04T19:07:16.962Z,24.30
2023-03-04T19:09:46.286Z,29.60
2023-03-04T19:12:14.263Z,1.40
2023-03-04T19:14:42.291Z,6.30
2023-03-04T19:17:10.295Z,1.00
2023-03-04T19:19:38.881Z,1.00
2023-03-04T19:22:06.987Z,46.50
2023-03-04T19:24:35.135Z,62.20
2023-03-04T19:27:05.416Z,57.90
2023-03-04T19:29:33.465Z,64.60
2023-03-04T19:32:01.556Z,76.10
2023-03-04T19:34:29.779Z,63.60
2023-03-04T19:36:57.747Z,72.80
2023-03-04T19:39:26.225Z,55.90
2023-03-04T19:41:54.171Z,43.30
2023-03-04T19:44:24.390Z,1.00
2023-03-04T19:46:52.368Z,1.00
2023-03-04T19:49:20.579Z,1.00
2023-03-04T19:51:48.635Z,1.00
2023-03-04T19:54:16.663Z,1.00
2023-03-04T19:56:44.703Z,1.00
2023-03-04T19:59:12.686Z,1.00
2023-03-04T20:01:44.131Z,1.00
2023-03-04T20:04:14.848Z,1.00
2023-03-04T20:06:45.174Z,1.00
2023-03-04T20:09:13.882Z,1.00
2023-03-04T20:11:56.617Z,1.00
2023-03-04T20:14:25.781Z,1.00
2023-03-04T20:16:55.222Z,1.00
2023-03-04T20:19:23.249Z,1.00
2023-03-04T20:21:51.278Z,1.00
2023-03-04T20:24:20.027Z,1.00
2023-03-04T20:26:48.020Z,1.00
2023-03-04T20:29:18.455Z,1.00
2023-03-04T20:31:49.248Z,1.00
2023-03-04T20:34:18.850Z,1.00
2023-03-04T20:36:46.818Z,1.00
2023-03-04T20:39:28.107Z,1.00
2023-03-04T20:41:57.357Z,1.00
2023-03-04T20:44:25.599Z,1.00
2023-03-04T20:46:53.718Z,1.00
2023-03-04T20:49:25.424Z,1.00
2023-03-04T20:51:54.571Z,1.00
2023-03-04T20:54:23.000Z,1.00
2023-03-04T20:56:51.384Z,1.00
2023-03-04T20:59:19.800Z,1.00
2023-03-04T21:01:49.042Z,1.00
2023-03-04T21:04:17.422Z,1.00
2023-03-04T21:06:48.407Z,1.00
2023-03-04T21:09:19.343Z,1.00
2023-03-04T21:11:48.178Z,1.00
2023-03-04T21:14:19.334Z,1.00
2023-03-04T21:16:47.897Z,1.00
2023-03-04T21:19:17.695Z,1.00
2023-03-04T21:21:47.589Z,1.00
2023-03-04T21:24:17.354Z,1.00
2023-03-04T21:26:47.646Z,1.00
2023-03-04T21:29:17.305Z,1.00
2023-03-04T21:31:47.227Z,1.00
2023-03-04T21:34:18.351Z,1.00
2023-03-04T21:36:47.907Z,1.00
2023-03-04T21:39:17.782Z,1.00
2023-03-04T21:41:46.806Z,1.00
2023-03-04T21:44:27.972Z,1.00
2023-03-04T21:47:02.105Z,1.00
2023-03-04T21:49:30.385Z,1.00
2023-03-04T21:51:59.746Z,1.00
2023-03-04T21:54:27.699Z,1.00
2023-03-04T21:56:55.736Z,1.00
2023-03-04T21:59:23.985Z,1.00
2023-03-04T22:01:52.262Z,1.00
2023-03-04T22:04:20.255Z,1.00
2023-03-04T22:06:48.173Z,1.00
2023-03-04T22:09:17.470Z,1.00
2023-03-04T22:11:45.449Z,1.00
2023-03-04T22:14:13.649Z,1.00
2023-03-04T22:16:54.513Z,1.00
2023-03-04T22:19:29.217Z,1.00
2023-03-04T22:21:57.235Z,1.00
2023-03-04T22:24:27.597Z,1.00
2023-03-04T22:26:56.898Z,1.00
2023-03-04T22:29:24.926Z,1.00
2023-03-04T22:31:53.185Z,1.00
2023-03-04T22:34:21.233Z,1.00
2023-03-04T22:36:49.382Z,1.00
2023-03-04T22:39:19.626Z,1.00
2023-03-04T22:41:49.080Z,1.00
2023-03-04T22:44:17.081Z,1.00
2023-03-04T22:46:45.018Z,1.00
2023-03-04T22:49:14.623Z,1.00
2023-03-04T22:51:44.331Z,1.00
2023-03-04T22:54:12.845Z,1.00
2023-03-04T22:56:40.863Z,1.00
2023-03-04T22:59:10.195Z,1.00
2023-03-04T23:01:38.348Z,1.00
2023-03-04T23:04:06.496Z,5.80
2023-03-04T23:06:34.565Z,79.90
2023-03-04T23:09:02.546Z,99.90
2023-03-04T23:11:32.144Z,99.90
2023-03-04T23:14:02.184Z,99.90
2023-03-04T23:16:33.064Z,99.90
2023-03-04T23:19:01.030Z,99.90
2023-03-04T23:21:29.098Z,99.90
2023-03-04T23:23:57.080Z,99.90
2023-03-04T23:26:27.773Z,99.90
2023-03-04T23:28:57.155Z,99.90
2023-03-04T23:31:25.594Z,99.90
2023-03-04T23:33:57.327Z,95.10
2023-03-04T23:36:27.286Z,90.80
2023-03-04T23:38:55.402Z,47.00
2023-03-04T23:41:25.929Z,22.40
2023-03-04T23:43:55.060Z,39.70
2023-03-04T23:46:23.502Z,52.10
2023-03-04T23:48:51.554Z,42.60
2023-03-04T23:51:22.860Z,41.80
2023-03-04T23:53:50.950Z,88.30
2023-03-04T23:56:20.981Z,99.90
2023-03-04T23:58:49.884Z,99.90
